»·PEaware :: N77DK KSNA-KWHP

N77DK :: KSNA-KWHP

FLIGHT INFORMATION

Flight Status: Arrived
Operator: Privately registered:
United States
More flights under this callsign
Pilot: Eugenio Joel D. (45026)
Aircraft: Unknown
(172S)
More flights by this aircraft type
Origin: KSNA John Wayne-Orange Co
United States
Destination: KWHP Whiteman
United States
More flights between these airports :: More routes between these airports
Route: SMO
File this flight plan on PilotEdge
Remarks:
Altitude:
(Current/Filed)
4,500ft
Speed:
(Current/Filed)
110kts
Departed: 11-Sep-23 06:03 PM
Arrived: 11-Sep-23 06:39 PM
Distance/Time
Traveled:
44nm/0:36
Distance/Time
To Go:
Arrived

Flight Plot

Page will automatically refresh every two minutes.

Flight plan parsing failed; only flown route is shown


Map Options




Map Legend


Flown Route
Filed Route
Departure Airport
Arrival Airport
Navaid (VOR, NDB)
Fix

Horizontal Profiles

Position Reports

Time Latitude Longitude Heading Altitude Ground
Speed
11-Sep-23 17:52 33.676499 -117.870540 116 53ft 0kts
11-Sep-23 17:53 33.676499 -117.870540 116 53ft 0kts
11-Sep-23 17:54 33.676499 -117.870540 116 53ft 0kts
11-Sep-23 17:55 33.676499 -117.870540 116 53ft 0kts
11-Sep-23 17:56 33.676499 -117.870540 116 53ft 0kts
11-Sep-23 17:57 33.676499 -117.870540 117 53ft 0kts
11-Sep-23 17:58 33.676322 -117.869996 97 54ft 0kts
11-Sep-23 17:59 33.681272 -117.866537 121 42ft 10kts
11-Sep-23 18:00 33.681243 -117.866484 124 42ft 0kts
11-Sep-23 18:01 33.681187 -117.866381 119 42ft 6kts
11-Sep-23 18:02 33.670982 -117.871580 211 308ft 75kts
11-Sep-23 18:03 33.656220 -117.888926 230 1147ft 75kts
11-Sep-23 18:04 33.643781 -117.909163 244 1941ft 76kts
11-Sep-23 18:05 33.639364 -117.934086 299 2716ft 82kts
11-Sep-23 18:06 33.655515 -117.952792 312 3479ft 78kts
11-Sep-23 18:07 33.667416 -117.974236 301 4160ft 78kts
11-Sep-23 18:08 33.679296 -117.998985 302 4544ft 105kts
11-Sep-23 18:09 33.695771 -118.032288 302 4539ft 119kts
11-Sep-23 18:10 33.712295 -118.065556 302 4525ft 110kts
11-Sep-23 18:11 33.727529 -118.096356 302 4519ft 106kts
11-Sep-23 18:12 33.742579 -118.126814 302 4520ft 105kts
11-Sep-23 18:13 33.757985 -118.157391 302 4520ft 108kts
11-Sep-23 18:14 33.758283 -118.192899 265 4523ft 109kts
11-Sep-23 18:15 33.754496 -118.229187 265 4523ft 109kts
11-Sep-23 18:16 33.762646 -118.261515 314 4532ft 106kts
11-Sep-23 18:17 33.786444 -118.283188 323 4537ft 107kts
11-Sep-23 18:18 33.810833 -118.304257 327 4538ft 108kts
11-Sep-23 18:19 33.836464 -118.323243 328 4537ft 108kts
11-Sep-23 18:20 33.861628 -118.342874 325 4534ft 108kts
11-Sep-23 18:21 33.887255 -118.361924 329 4539ft 108kts
11-Sep-23 18:22 33.913147 -118.380506 324 4536ft 108kts
11-Sep-23 18:23 33.937593 -118.401554 324 4539ft 108kts
11-Sep-23 18:24 33.963281 -118.420688 328 4537ft 108kts
11-Sep-23 18:25 33.989147 -118.439721 328 4538ft 108kts
11-Sep-23 18:26 34.014946 -118.458679 328 4539ft 108kts
11-Sep-23 18:27 34.042784 -118.451943 8 4530ft 109kts
11-Sep-23 18:28 34.073178 -118.446683 6 4490ft 113kts
11-Sep-23 18:29 34.104413 -118.441629 6 4316ft 116kts
11-Sep-23 18:30 34.134115 -118.450534 334 3320ft 112kts
11-Sep-23 18:31 34.158748 -118.464076 333 3173ft 89kts
11-Sep-23 18:32 34.183757 -118.472089 350 3185ft 96kts
11-Sep-23 18:33 34.210971 -118.475473 1 3188ft 99kts
11-Sep-23 18:34 34.238618 -118.473869 3 3117ft 97kts
11-Sep-23 18:35 34.265794 -118.471296 16 2296ft 97kts
11-Sep-23 18:36 34.281787 -118.448301 61 1685ft 81kts
11-Sep-23 18:37 34.272995 -118.427879 143 1369ft 75kts
11-Sep-23 18:38 34.258876 -118.413039 138 1001ft 34kts
11-Sep-23 18:39 34.258108 -118.411536 317 1001ft 0kts
11-Sep-23 18:40 34.258114 -118.411542 315 1001ft 0kts
11-Sep-23 18:41 34.259392 -118.412858 325 1000ft 12kts
11-Sep-23 18:42 34.260732 -118.411971 39 1003ft 2kts

Navigation Log

Ident Type
Flight plan parsing failed, navigation log unavailable